Time;durP1;ratioP1;P1;durP2;ratioP2;P2;SDS_P1;SDS_P2;PMS_P1;PMS_P2;Temp;Humidity;BMP_temperature;BMP_pressure;BME280_temperature;BME280_humidity;BME280_pressure;Samples;Min_cycle;Max_cycle;Signal;HPM_P1;HPM_P2
2021/10/18 00:39:35;;;;;;;15.63;8.00;;;;;;;25.04;43.56;100991.72;5774598;23;20021;-88
2021/10/18 00:42:00;;;;;;;10.13;7.10;;;;;;;25.05;43.61;100989.72;4956843;28;20549;-90
2021/10/18 00:44:26;;;;;;;11.88;7.18;;;;;;;25.21;42.78;100975.25;4953741;29;20034;-76
2021/10/18 00:46:51;;;;;;;9.15;6.55;;;;;;;25.21;42.91;100978.84;4948289;28;20035;-73
2021/10/18 00:49:17;;;;;;;13.02;7.30;;;;;;;25.14;43.11;100974.06;4944954;29;20114;-75
2021/10/18 00:51:43;;;;;;;11.40;7.03;;;;;;;25.21;43.26;100959.28;4944034;29;20385;-73
2021/10/18 00:54:08;;;;;;;11.48;5.93;;;;;;;25.20;43.16;100956.88;4944767;29;20466;-73
2021/10/18 00:56:34;;;;;;;12.88;6.60;;;;;;;25.20;42.98;100970.88;4944651;29;20042;-73
2021/10/18 00:59:01;;;;;;;15.60;6.72;;;;;;;24.82;43.85;100968.59;4942858;29;20031;-73
2021/10/18 01:01:26;;;;;;;12.23;6.97;;;;;;;24.78;44.26;100990.16;4943036;29;20042;-73
2021/10/18 01:03:55;;;;;;;11.27;6.60;;;;;;;24.85;44.16;100978.97;4936590;29;20520;-73
2021/10/18 01:06:21;;;;;;;10.23;5.95;;;;;;;24.94;43.65;100964.56;4936517;29;20170;-73
2021/10/18 01:08:47;;;;;;;10.73;6.20;;;;;;;24.87;43.50;100947.84;4937944;29;20059;-88
2021/10/18 01:11:12;;;;;;;14.27;6.80;;;;;;;24.92;43.64;100956.56;4938288;29;20032;-89
2021/10/18 01:13:38;;;;;;;7.97;5.47;;;;;;;25.02;43.26;100931.78;4936715;29;20060;-88
2021/10/18 01:16:07;;;;;;;11.43;5.90;;;;;;;24.98;43.17;100922.63;4936556;29;20474;-87
2021/10/18 01:18:33;;;;;;;12.05;5.55;;;;;;;24.96;43.21;100933.41;4936541;29;20560;-86
2021/10/18 01:20:58;;;;;;;9.35;5.10;;;;;;;25.03;43.29;100933.38;4935871;29;20032;-86
2021/10/18 01:23:24;;;;;;;9.55;5.63;;;;;;;24.97;43.41;100921.03;4935491;29;20031;-85
2021/10/18 01:25:50;;;;;;;9.60;5.03;;;;;;;24.94;43.20;100949.78;4935335;29;20035;-86
2021/10/18 01:28:15;;;;;;;6.45;4.65;;;;;;;24.93;43.32;100954.56;4936637;29;20761;-88
2021/10/18 01:30:41;;;;;;;8.80;5.15;;;;;;;24.98;43.09;100954.16;4935294;29;20024;-81
2021/10/18 01:33:06;;;;;;;6.50;4.32;;;;;;;24.98;42.70;100956.97;4936293;29;20042;-79
2021/10/18 01:35:32;;;;;;;9.35;5.03;;;;;;;24.81;43.16;100944.66;4936156;29;20036;-77
2021/10/18 01:37:58;;;;;;;8.85;5.07;;;;;;;24.85;43.17;100939.84;4936084;29;20055;-77
2021/10/18 01:40:25;;;;;;;6.43;3.92;;;;;;;24.75;43.24;100932.31;4935813;29;20054;-77
2021/10/18 01:42:50;;;;;;;6.20;4.05;;;;;;;24.78;42.77;100925.09;4936447;29;20034;-77
2021/10/18 01:45:18;;;;;;;9.95;4.60;;;;;;;24.77;42.99;100926.31;4935874;29;20027;-78
2021/10/18 01:47:43;;;;;;;6.57;3.83;;;;;;;24.72;42.78;100935.91;4935927;29;20043;-76
2021/10/18 01:50:15;;;;;;;6.57;4.20;;;;;;;24.68;42.80;100932.31;4934636;29;20036;-77
2021/10/18 01:52:42;;;;;;;6.85;4.65;;;;;;;24.64;43.06;100942.72;4935797;29;20031;-76
2021/10/18 01:55:08;;;;;;;4.45;3.58;;;;;;;24.70;42.86;100931.91;4935754;29;20487;-77
2021/10/18 01:57:34;;;;;;;8.40;4.13;;;;;;;24.69;42.54;100930.31;4935758;29;20028;-74
2021/10/18 01:59:59;;;;;;;6.60;3.78;;;;;;;24.63;42.66;100924.34;4935628;29;20063;-74
2021/10/18 02:02:25;;;;;;;6.97;3.70;;;;;;;24.66;42.68;100904.00;4935521;29;20063;-75
2021/10/18 02:04:50;;;;;;;7.03;3.75;;;;;;;24.67;42.53;100911.19;4942978;29;20513;-76
2021/10/18 02:07:16;;;;;;;8.77;4.18;;;;;;;24.70;42.60;100921.53;4943067;29;20110;-75
2021/10/18 02:09:42;;;;;;;8.13;4.20;;;;;;;24.78;42.60;100906.31;4935546;29;20032;-76
2021/10/18 02:12:08;;;;;;;11.13;4.65;;;;;;;24.73;42.46;100908.78;4935548;29;20475;-75
2021/10/18 02:14:33;;;;;;;6.70;3.80;;;;;;;24.75;42.61;100917.53;4934087;29;20067;-75
2021/10/18 02:16:59;;;;;;;5.65;3.60;;;;;;;24.68;42.53;100911.97;4935441;29;20086;-75
2021/10/18 02:19:25;;;;;;;9.93;4.10;;;;;;;24.67;42.80;100910.38;4940403;29;20036;-76
2021/10/18 02:21:50;;;;;;;11.18;4.53;;;;;;;24.79;42.62;100921.91;4934167;29;20471;-75
2021/10/18 02:24:16;;;;;;;11.65;4.32;;;;;;;25.04;42.08;100912.63;4935211;29;20054;-75
2021/10/18 02:26:41;;;;;;;10.27;4.10;;;;;;;25.15;41.92;100911.34;4935037;29;20394;-76
2021/10/18 02:29:09;;;;;;;7.80;4.57;;;;;;;24.96;42.22;100919.44;4934676;29;20035;-75
2021/10/18 02:31:35;;;;;;;6.82;4.38;;;;;;;24.94;42.59;100917.06;4935280;29;20478;-75
2021/10/18 02:34:02;;;;;;;9.27;5.00;;;;;;;24.86;42.48;100907.91;4935241;29;20156;-75
2021/10/18 02:36:27;;;;;;;9.65;5.00;;;;;;;24.97;42.43;100890.28;4935116;29;20035;-75
2021/10/18 02:38:53;;;;;;;9.55;4.47;;;;;;;24.96;42.72;100885.91;4935215;29;20035;-75
2021/10/18 02:41:18;;;;;;;8.18;4.85;;;;;;;25.04;42.18;100870.72;4934958;29;20118;-74
2021/10/18 02:43:44;;;;;;;6.15;4.07;;;;;;;24.98;42.49;100875.09;4935138;29;20051;-74
2021/10/18 02:46:09;;;;;;;9.13;5.47;;;;;;;25.00;42.27;100864.31;4935032;29;20505;-77
2021/10/18 02:48:35;;;;;;;5.55;4.22;;;;;;;24.92;42.72;100883.91;4935026;29;20036;-75
2021/10/18 02:51:00;;;;;;;8.90;4.30;;;;;;;24.76;43.29;100889.19;4935023;29;20070;-75
2021/10/18 02:53:26;;;;;;;7.38;4.90;;;;;;;24.84;43.19;100867.59;4935118;29;20028;-74
2021/10/18 02:55:52;;;;;;;9.63;4.28;;;;;;;24.81;43.21;100877.59;4935074;29;20028;-75
2021/10/18 02:58:17;;;;;;;5.72;3.65;;;;;;;24.76;43.14;100869.63;4935275;29;20094;-75
2021/10/18 03:00:43;;;;;;;5.80;4.43;;;;;;;24.74;43.08;100843.31;4934837;29;20028;-74
2021/10/18 03:03:09;;;;;;;8.80;5.07;;;;;;;25.06;42.30;100871.09;4933725;29;20371;-75
2021/10/18 03:05:35;;;;;;;9.95;4.85;;;;;;;24.91;42.78;100865.56;4934791;29;20137;-76
2021/10/18 03:08:01;;;;;;;6.82;4.55;;;;;;;24.96;42.79;100843.97;4943886;28;20035;-75
2021/10/18 03:10:27;;;;;;;7.20;4.90;;;;;;;25.00;42.85;100844.72;4943470;29;20038;-76
2021/10/18 03:12:53;;;;;;;7.50;5.00;;;;;;;25.05;42.88;100852.72;4945974;28;20382;-77
2021/10/18 03:15:18;;;;;;;9.35;4.40;;;;;;;25.17;42.77;100832.69;4945196;28;20457;-74
2021/10/18 03:17:44;;;;;;;12.35;5.15;;;;;;;25.45;41.88;100828.84;4942553;29;20063;-73
2021/10/18 03:20:11;;;;;;;10.73;6.30;;;;;;;25.53;41.50;100815.59;4945001;28;20032;-73
2021/10/18 03:22:37;;;;;;;12.43;5.22;;;;;;;25.24;42.27;100810.25;4943955;29;20058;-73
2021/10/18 03:25:04;;;;;;;9.43;4.78;;;;;;;25.18;42.43;100820.28;4943270;28;20035;-74
2021/10/18 03:27:29;;;;;;;9.02;5.53;;;;;;;25.29;42.30;100811.81;4944904;29;20034;-74
2021/10/18 03:29:55;;;;;;;8.85;5.82;;;;;;;25.28;42.28;100805.44;4943652;29;20032;-74
2021/10/18 03:32:21;;;;;;;9.50;5.63;;;;;;;25.48;41.90;100799.28;4945663;28;20020;-77
2021/10/18 03:34:46;;;;;;;10.07;6.03;;;;;;;25.49;41.84;100775.69;4942840;28;20024;-77
2021/10/18 03:37:12;;;;;;;10.90;5.95;;;;;;;25.46;41.87;100780.88;4944699;28;20092;-76
2021/10/18 03:39:37;;;;;;;7.95;6.18;;;;;;;25.59;41.58;100777.56;4943866;28;20056;-75
2021/10/18 03:42:04;;;;;;;10.68;5.57;;;;;;;25.48;41.86;100752.50;4942948;28;20107;-77
2021/10/18 03:44:30;;;;;;;12.73;6.50;;;;;;;25.44;42.13;100749.75;4955300;28;20038;-75
2021/10/18 03:46:55;;;;;;;10.05;5.90;;;;;;;25.30;42.13;100735.88;4957119;28;20035;-74
2021/10/18 03:49:21;;;;;;;11.90;5.45;;;;;;;25.28;42.27;100746.69;4955906;29;20552;-73
2021/10/18 03:51:47;;;;;;;10.75;6.40;;;;;;;25.31;42.09;100737.47;4957130;28;20505;-74
2021/10/18 03:54:12;;;;;;;14.38;7.55;;;;;;;25.34;41.77;100739.47;4957094;28;20398;-74
2021/10/18 03:56:38;;;;;;;8.63;5.32;;;;;;;25.30;41.93;100724.69;4957107;28;20091;-73
2021/10/18 03:59:04;;;;;;;9.68;6.00;;;;;;;25.36;41.81;100697.88;4957071;28;20106;-75
2021/10/18 04:01:29;;;;;;;13.05;6.45;;;;;;;25.39;41.73;100711.06;4956978;28;20038;-75
2021/10/18 04:03:55;;;;;;;11.93;5.97;;;;;;;25.35;41.95;100715.88;4956893;28;20114;-74
2021/10/18 04:06:20;;;;;;;15.15;6.97;;;;;;;25.38;41.96;100703.06;4956860;28;20054;-75
2021/10/18 04:08:49;;;;;;;12.68;6.53;;;;;;;25.38;42.06;100686.28;4956792;28;20031;-75
2021/10/18 04:11:15;;;;;;;18.70;7.38;;;;;;;25.34;41.85;100668.75;4956807;28;20082;-74
2021/10/18 04:13:41;;;;;;;12.77;7.18;;;;;;;25.32;42.10;100669.16;4956779;28;20036;-73
2021/10/18 04:16:06;;;;;;;10.07;6.93;;;;;;;25.36;42.06;100678.31;4956702;28;20035;-77
2021/10/18 04:18:32;;;;;;;17.85;6.82;;;;;;;25.41;41.98;100675.06;4956695;28;20047;-73
2021/10/18 04:20:59;;;;;;;15.38;7.10;;;;;;;25.44;41.85;100665.81;4956655;28;20037;-74
2021/10/18 04:23:28;;;;;;;15.73;7.18;;;;;;;25.13;42.38;100659.38;4956572;28;20503;-75
2021/10/18 04:25:53;;;;;;;14.18;6.88;;;;;;;25.45;42.00;100644.25;4956565;28;20039;-74
2021/10/18 04:28:19;;;;;;;18.60;8.23;;;;;;;25.34;41.85;100641.56;4955199;29;20098;-73
2021/10/18 04:30:45;;;;;;;15.23;6.93;;;;;;;25.24;42.62;100636.91;4956445;28;20034;-73
2021/10/18 04:33:11;;;;;;;14.45;7.50;;;;;;;25.34;42.24;100644.38;4956382;28;20114;-73
2021/10/18 04:35:37;;;;;;;19.42;7.53;;;;;;;25.23;42.30;100643.69;4956364;28;20034;-73
2021/10/18 04:38:03;;;;;;;15.45;7.35;;;;;;;25.39;42.01;100649.53;4956354;28;20035;-77
2021/10/18 04:40:29;;;;;;;13.70;8.15;;;;;;;25.35;42.12;100643.16;4956060;28;20051;-73
2021/10/18 04:42:54;;;;;;;14.98;6.97;;;;;;;25.29;42.24;100638.44;4956249;28;20437;-75
2021/10/18 04:45:20;;;;;;;18.23;8.65;;;;;;;25.21;42.70;100637.72;4956112;28;20038;-75
2021/10/18 04:47:51;;;;;;;15.02;7.20;;;;;;;25.16;42.50;100625.00;4955029;28;20042;-73
2021/10/18 04:50:22;;;;;;;15.70;7.15;;;;;;;25.12;42.88;100612.25;4956126;28;20501;-74
2021/10/18 04:52:49;;;;;;;14.05;7.78;;;;;;;24.96;43.59;100603.63;4955437;28;20035;-74
2021/10/18 04:55:15;;;;;;;20.65;8.50;;;;;;;25.20;42.94;100608.19;4954904;28;20034;-74
2021/10/18 04:57:56;;;;;;;16.30;7.40;;;;;;;25.00;43.74;100607.16;4954513;28;20109;-75
2021/10/18 05:00:23;;;;;;;11.95;6.55;;;;;;;25.25;43.11;100590.94;4956040;28;20082;-74
2021/10/18 05:02:49;;;;;;;24.17;8.27;;;;;;;25.01;44.04;100597.56;4955959;28;20031;-73
2021/10/18 05:05:14;;;;;;;12.95;6.80;;;;;;;25.28;43.33;100587.31;4955711;28;20043;-75
2021/10/18 05:07:40;;;;;;;21.85;7.07;;;;;;;25.29;42.92;100583.31;4955785;28;20166;-75
2021/10/18 05:10:10;;;;;;;14.57;6.95;;;;;;;25.27;43.49;100574.53;4955754;28;20038;-73
2021/10/18 05:12:36;;;;;;;12.57;6.10;;;;;;;25.36;43.21;100566.44;4955653;28;20032;-73
2021/10/18 05:15:02;;;;;;;10.10;6.45;;;;;;;25.29;43.37;100568.53;4955640;28;20493;-75
2021/10/18 05:17:27;;;;;;;14.27;6.70;;;;;;;25.16;43.92;100545.91;4955520;28;20034;-74
2021/10/18 05:19:53;;;;;;;16.13;7.20;;;;;;;25.07;44.42;100543.59;4955564;28;20050;-74
2021/10/18 05:22:18;;;;;;;14.13;7.20;;;;;;;25.18;43.83;100535.91;4954229;28;20054;-75
2021/10/18 05:24:44;;;;;;;14.30;6.40;;;;;;;24.82;45.05;100541.06;4955373;28;20027;-74
2021/10/18 05:27:10;;;;;;;10.15;6.28;;;;;;;24.64;45.74;100548.84;4955404;29;20034;-74
2021/10/18 05:29:36;;;;;;;11.13;5.45;;;;;;;24.54;46.39;100549.72;4954119;28;20031;-74
2021/10/18 05:32:02;;;;;;;19.35;6.00;;;;;;;24.66;46.05;100540.84;4954197;29;20470;-75
2021/10/18 05:34:27;;;;;;;16.08;7.22;;;;;;;24.76;45.84;100531.53;4955249;28;20110;-74
2021/10/18 05:36:53;;;;;;;15.10;7.30;;;;;;;24.99;45.15;100519.72;4955258;28;20412;-73
2021/10/18 05:39:18;;;;;;;11.38;5.85;;;;;;;24.69;46.26;100534.41;4955060;28;20027;-74
2021/10/18 05:41:44;;;;;;;19.15;6.50;;;;;;;25.05;45.22;100539.66;4955305;28;20550;-74
2021/10/18 05:44:09;;;;;;;10.70;5.18;;;;;;;24.77;46.34;100535.13;4955035;28;20102;-75
2021/10/18 05:46:35;;;;;;;10.93;5.55;;;;;;;24.86;45.96;100532.63;4954886;28;20133;-74
2021/10/18 05:49:01;;;;;;;10.98;5.75;;;;;;;24.98;45.65;100526.53;4955071;28;20031;-75
2021/10/18 05:51:29;;;;;;;7.55;4.10;;;;;;;25.03;45.24;100544.84;4954989;28;20035;-74
2021/10/18 05:53:55;;;;;;;10.70;4.18;;;;;;;24.18;47.98;100527.66;4955003;28;20031;-74
2021/10/18 05:56:20;;;;;;;10.60;3.90;;;;;;;24.21;47.71;100531.63;4954897;28;20466;-74
2021/10/18 05:58:46;;;;;;;8.48;4.45;;;;;;;24.90;45.95;100528.59;4954948;28;20112;-73
2021/10/18 06:01:12;;;;;;;9.77;4.20;;;;;;;24.47;47.44;100516.25;4953551;28;20038;-73
2021/10/18 06:03:37;;;;;;;8.90;3.70;;;;;;;24.97;46.02;100521.34;4954059;28;20043;-73
2021/10/18 06:06:06;;;;;;;9.63;3.75;;;;;;;24.61;46.73;100508.53;4954775;28;20027;-76
2021/10/18 06:08:32;;;;;;;7.18;4.10;;;;;;;24.96;45.78;100514.19;4954778;28;20023;-75
2021/10/18 06:10:58;;;;;;;10.02;4.47;;;;;;;24.92;46.26;100517.00;4954718;28;20118;-78
2021/10/18 06:13:24;;;;;;;9.50;3.63;;;;;;;24.98;46.12;100500.56;4954878;28;20050;-74
2021/10/18 06:15:50;;;;;;;5.55;4.32;;;;;;;25.02;45.70;100493.75;4954611;28;20032;-75
2021/10/18 06:18:17;;;;;;;10.88;4.38;;;;;;;25.26;45.33;100483.47;4954628;28;20041;-74
2021/10/18 06:20:46;;;;;;;8.65;4.57;;;;;;;25.16;45.81;100479.63;4954940;28;20393;-73
2021/10/18 06:23:13;;;;;;;8.95;4.13;;;;;;;25.18;45.75;100482.00;4953120;29;20030;-77
2021/10/18 06:25:40;;;;;;;8.27;4.18;;;;;;;25.20;45.36;100485.16;4954427;28;20042;-73
2021/10/18 06:28:07;;;;;;;7.70;3.47;;;;;;;25.24;45.34;100483.13;4954798;28;20110;-72
2021/10/18 06:30:33;;;;;;;5.93;3.35;;;;;;;25.11;45.75;100484.88;4954467;28;20027;-73
2021/10/18 06:32:59;;;;;;;8.88;3.67;;;;;;;25.29;45.66;100481.84;4954394;28;20147;-79
2021/10/18 06:35:25;;;;;;;7.78;4.03;;;;;;;25.05;46.24;100478.94;4954482;28;20110;-72
2021/10/18 06:37:51;;;;;;;6.10;3.45;;;;;;;25.16;45.73;100484.41;4954513;28;20422;-72
2021/10/18 06:40:17;;;;;;;9.15;4.28;;;;;;;25.45;45.13;100493.19;4953023;29;20461;-74
2021/10/18 06:42:43;;;;;;;7.90;4.28;;;;;;;25.20;46.15;100475.97;4954389;28;20090;-77
2021/10/18 06:45:09;;;;;;;13.85;4.35;;;;;;;25.42;45.54;100469.69;4952997;28;20028;-73
2021/10/18 06:47:35;;;;;;;11.80;5.28;;;;;;;25.39;45.50;100464.13;4954350;28;20031;-73
2021/10/18 06:50:01;;;;;;;9.57;4.40;;;;;;;25.48;45.09;100472.00;4954349;28;20117;-76
2021/10/18 06:52:32;;;;;;;13.15;4.97;;;;;;;24.97;46.66;100474.63;4954314;28;20094;-73
2021/10/18 06:54:59;;;;;;;9.85;5.05;;;;;;;25.08;46.28;100478.09;4954223;28;20019;-73
2021/10/18 06:57:25;;;;;;;12.98;4.85;;;;;;;25.12;46.34;100459.28;4954227;28;20051;-71
2021/10/18 06:59:50;;;;;;;12.88;5.32;;;;;;;25.45;45.37;100443.66;4954320;28;20114;-86
2021/10/18 07:02:16;;;;;;;13.27;4.95;;;;;;;25.46;45.66;100452.84;4952708;29;20042;-77
2021/10/18 07:04:41;;;;;;;10.70;4.20;;;;;;;25.25;46.07;100456.75;4952999;28;20031;-76
2021/10/18 07:07:07;;;;;;;11.23;4.68;;;;;;;25.40;45.61;100454.53;4952779;28;20040;-74
2021/10/18 07:09:33;;;;;;;11.32;4.28;;;;;;;25.28;45.98;100455.88;4954056;28;20034;-72
2021/10/18 07:11:58;;;;;;;9.05;4.95;;;;;;;25.43;45.59;100454.47;4954002;28;20039;-71
2021/10/18 07:14:24;;;;;;;15.40;6.63;;;;;;;25.41;45.65;100444.94;4954741;28;20035;-74
2021/10/18 07:16:51;;;;;;;11.50;4.53;;;;;;;25.26;46.20;100449.13;4957686;28;20036;-72
2021/10/18 07:19:16;;;;;;;10.35;3.95;;;;;;;25.32;46.26;100448.25;4957758;28;20063;-72
2021/10/18 07:21:44;;;;;;;13.35;4.90;;;;;;;25.32;46.23;100439.06;4957160;28;20062;-76
2021/10/18 07:24:09;;;;;;;9.70;5.15;;;;;;;25.26;46.33;100446.34;4957561;28;20493;-73
2021/10/18 07:26:35;;;;;;;10.73;3.70;;;;;;;25.36;46.20;100440.59;4957426;28;20043;-77
2021/10/18 07:29:00;;;;;;;7.88;4.13;;;;;;;25.53;45.78;100441.53;4957551;28;20039;-70
2021/10/18 07:31:26;;;;;;;12.80;3.60;;;;;;;25.54;45.62;100445.13;4946811;28;20078;-71
2021/10/18 07:33:56;;;;;;;12.73;4.63;;;;;;;25.63;45.60;100451.78;4947968;28;20054;-71
2021/10/18 07:36:26;;;;;;;9.95;4.68;;;;;;;25.69;45.25;100454.88;4938198;29;20032;-71
2021/10/18 07:38:52;;;;;;;10.95;3.83;;;;;;;25.58;45.99;100457.06;4937676;29;20055;-72
2021/10/18 07:41:19;;;;;;;10.05;3.65;;;;;;;25.73;45.57;100458.47;4937458;29;20040;-71
2021/10/18 07:43:45;;;;;;;8.45;3.53;;;;;;;25.70;45.62;100457.28;4938154;29;20019;-72
2021/10/18 07:46:11;;;;;;;8.65;3.17;;;;;;;25.83;45.02;100445.50;4937966;29;20063;-71
2021/10/18 07:48:37;;;;;;;7.28;2.90;;;;;;;25.80;45.22;100449.16;4936779;29;20439;-72
2021/10/18 07:51:03;;;;;;;9.77;3.60;;;;;;;25.94;44.83;100444.13;4936739;29;20032;-72
2021/10/18 07:53:28;;;;;;;5.10;2.80;;;;;;;25.99;44.90;100452.03;4937314;29;20024;-72
2021/10/18 07:55:54;;;;;;;11.80;3.25;;;;;;;26.04;45.01;100452.78;4937563;29;20020;-72
2021/10/18 07:58:21;;;;;;;12.02;3.22;;;;;;;26.04;44.66;100447.97;4936176;29;20394;-72
2021/10/18 08:00:47;;;;;;;6.95;3.08;;;;;;;26.00;45.08;100467.63;4937388;29;20035;-72
2021/10/18 08:03:12;;;;;;;6.05;2.50;;;;;;;26.09;44.73;100463.50;4937623;29;20028;-71
2021/10/18 08:05:38;;;;;;;6.65;2.70;;;;;;;26.08;44.93;100475.91;4937387;29;20027;-76
2021/10/18 08:08:05;;;;;;;6.72;2.10;;;;;;;26.11;44.88;100475.06;4937691;29;20037;-72
2021/10/18 08:10:31;;;;;;;9.68;3.03;;;;;;;26.15;44.80;100471.00;4937658;29;20446;-71
2021/10/18 08:12:58;;;;;;;7.30;2.63;;;;;;;26.09;45.04;100486.69;4937649;29;20039;-71
2021/10/18 08:15:26;;;;;;;8.52;2.65;;;;;;;26.13;44.65;100492.22;4937583;29;20023;-72
2021/10/18 08:17:52;;;;;;;6.63;2.05;;;;;;;26.13;44.78;100481.78;4936256;29;20024;-76
2021/10/18 08:20:18;;;;;;;3.88;2.17;;;;;;;26.10;44.97;100491.06;4937496;29;20027;-72
2021/10/18 08:22:44;;;;;;;3.80;1.70;;;;;;;26.13;45.11;100492.22;4937675;29;20051;-72
2021/10/18 08:25:10;;;;;;;4.82;2.58;;;;;;;26.21;44.67;100508.47;4937340;29;20031;-71
2021/10/18 08:27:36;;;;;;;8.18;1.95;;;;;;;26.22;44.63;100504.47;4935356;29;20039;-71
2021/10/18 08:30:06;;;;;;;7.28;1.92;;;;;;;26.31;44.70;100497.53;4937442;29;20027;-75
2021/10/18 08:32:32;;;;;;;5.57;2.20;;;;;;;26.24;44.78;100496.44;4937540;29;20366;-73
2021/10/18 08:34:57;;;;;;;7.70;1.70;;;;;;;26.27;44.53;100492.75;4939582;29;20031;-72
2021/10/18 08:38:15;;;;;;;3.95;1.65;;;;;;;26.32;44.57;100485.09;4937101;29;20032;-72
2021/10/18 08:40:10;;;;;;;6.10;1.70;;;;;;;26.33;44.44;100473.47;4936826;29;20043;-72
2021/10/18 08:42:58;;;;;;;5.80;2.35;;;;;;;26.28;44.65;100451.53;4937090;29;20036;-72
2021/10/18 08:45:23;;;;;;;1.52;0.95;;;;;;;26.48;44.30;100472.03;4935595;29;20059;-72
2021/10/18 08:47:52;;;;;;;6.28;1.33;;;;;;;26.55;44.06;100466.28;4936888;29;20059;-72
2021/10/18 08:50:17;;;;;;;3.70;1.27;;;;;;;26.61;43.86;100480.59;4942691;29;20071;-77
2021/10/18 08:52:43;;;;;;;5.00;1.80;;;;;;;26.66;44.16;100491.28;4944508;28;20062;-76
2021/10/18 08:55:09;;;;;;;3.70;1.63;;;;;;;26.66;43.91;100496.91;4945986;29;20031;-76
2021/10/18 08:57:35;;;;;;;7.25;2.03;;;;;;;26.64;43.99;100490.16;4944632;29;20386;-76
2021/10/18 09:00:03;;;;;;;4.25;1.77;;;;;;;26.71;43.89;100496.41;4946683;28;20054;-74
2021/10/18 09:02:36;;;;;;;2.90;1.48;;;;;;;26.71;43.87;100490.00;4943939;28;20035;-72
2021/10/18 09:05:08;;;;;;;5.15;1.67;;;;;;;26.71;43.58;100506.81;4946839;28;20024;-73
2021/10/18 09:07:38;;;;;;;3.13;1.40;;;;;;;26.62;44.05;100503.81;4944331;29;20127;-75
2021/10/18 09:10:10;;;;;;;;;;;;;;;26.55;43.84;100511.13;4943368;29;20382;-73
2021/10/18 09:12:39;;;;;;;3.55;0.90;;;;;;;26.54;43.88;100487.13;4944428;29;19915;-73
2021/10/18 09:15:25;;;;;;;1.95;1.25;;;;;;;26.66;43.51;100488.50;4943961;28;20031;-72
2021/10/18 09:17:53;;;;;;;2.85;1.23;;;;;;;26.65;43.48;100486.13;4945668;29;20050;-71
2021/10/18 09:20:32;;;;;;;2.97;1.13;;;;;;;26.62;43.35;100481.38;4945611;29;20027;-72
2021/10/18 09:23:44;;;;;;;3.17;1.15;;;;;;;26.61;43.64;100485.41;4944355;29;20023;-72
2021/10/18 09:26:15;;;;;;;2.60;1.10;;;;;;;26.60;43.34;100481.00;4943423;28;20024;-71
2021/10/18 09:28:41;;;;;;;2.33;1.20;;;;;;;26.58;43.43;100486.25;4944309;28;20362;-72
2021/10/18 09:31:15;;;;;;;4.38;1.45;;;;;;;26.50;43.28;100489.19;4945693;29;20107;-72
2021/10/18 09:33:46;;;;;;;3.70;1.83;;;;;;;26.57;43.21;100481.88;4944859;29;20027;-72
2021/10/18 09:36:16;;;;;;;4.80;1.10;;;;;;;26.65;43.34;100475.69;4943533;29;20015;-72
2021/10/18 09:38:41;;;;;;;4.18;1.52;;;;;;;26.57;43.38;100481.88;4938731;28;20023;-72
2021/10/18 09:41:08;;;;;;;3.60;1.40;;;;;;;26.74;43.14;100489.16;4945020;28;20403;-72
2021/10/18 09:43:59;;;;;;;3.72;1.65;;;;;;;26.76;43.11;100481.91;4943294;28;20382;-74
2021/10/18 09:46:24;;;;;;;4.28;1.48;;;;;;;26.72;43.20;100472.75;4944116;29;20046;-72
2021/10/18 10:51:11;;;;;;;0.47;0.30;;;;;;;27.75;42.20;100467.00;4947324;29;20037;-72
2021/10/18 10:53:51;;;;;;;0.20;0.20;;;;;;;28.06;41.59;100475.09;4946990;29;20047;-71
2021/10/18 10:56:30;;;;;;;1.48;0.60;;;;;;;28.13;41.44;100467.28;4946876;29;20110;-72
2021/10/18 10:59:12;;;;;;;0.47;0.28;;;;;;;28.01;41.74;100462.34;4946649;29;20028;-72
2021/10/18 11:01:53;;;;;;;0.40;0.10;;;;;;;28.02;41.74;100455.50;4947003;29;20047;-73
2021/10/18 11:04:31;;;;;;;1.45;0.30;;;;;;;28.11;41.62;100446.44;4947067;29;20028;-72
2021/10/18 11:06:58;;;;;;;0.43;0.20;;;;;;;28.36;40.95;100438.22;4946657;29;20034;-72
2021/10/18 11:09:44;;;;;;;0.55;0.22;;;;;;;28.36;40.72;100443.81;4947029;28;20381;-72
2021/10/18 11:12:29;;;;;;;3.15;0.40;;;;;;;28.51;40.72;100454.69;4946247;29;20028;-72
2021/10/18 11:15:09;;;;;;;5.25;0.93;;;;;;;28.56;40.62;100449.28;4946814;29;20035;-72
2021/10/18 11:17:39;;;;;;;0.32;0.20;;;;;;;28.40;41.04;100446.53;4945529;29;20027;-72
2021/10/18 11:20:09;;;;;;;0.00;0.00;;;;;;;28.61;40.65;100462.81;4945861;28;20031;-72
2021/10/18 11:22:43;;;;;;;1.80;0.32;;;;;;;28.58;40.50;100465.75;4946912;28;20027;-74
2021/10/18 11:25:12;;;;;;;1.67;0.35;;;;;;;28.35;40.45;100469.56;4947607;29;20023;-72
2021/10/18 11:27:39;;;;;;;9.45;1.17;;;;;;;28.50;40.98;100464.34;4946878;29;20028;-72
2021/10/18 11:30:09;;;;;;;1.17;0.35;;;;;;;28.79;40.12;100465.13;4945616;28;20036;-72
2021/10/18 11:32:35;;;;;;;3.83;0.38;;;;;;;28.84;40.27;100467.41;4948226;28;20823;-71
2021/10/18 11:35:19;;;;;;;3.55;1.92;;;;;;;28.58;40.26;100472.16;4946100;28;20028;-72
2021/10/18 11:37:51;;;;;;;0.90;0.32;;;;;;;28.90;39.93;100467.66;4945075;29;20024;-75
2021/10/18 11:40:19;;;;;;;3.40;0.40;;;;;;;28.80;40.13;100471.56;4945078;28;20126;-78
2021/10/18 11:42:59;;;;;;;1.58;0.20;;;;;;;29.00;39.50;100475.78;4947536;29;20535;-73
2021/10/18 11:45:27;;;;;;;0.98;0.20;;;;;;;28.89;39.45;100474.50;4943562;29;20031;-74
2021/10/18 11:48:02;;;;;;;2.92;0.45;;;;;;;29.06;39.40;100476.03;4940562;29;20394;-73
2021/10/18 11:50:28;;;;;;;4.47;0.40;;;;;;;29.11;39.33;100475.50;4935953;29;20043;-76
2021/10/18 11:52:56;;;;;;;1.13;0.35;;;;;;;29.11;39.56;100469.88;4937486;29;20027;-72
2021/10/18 11:55:29;;;;;;;1.98;0.40;;;;;;;29.23;39.25;100465.50;4937359;29;20036;-72
2021/10/18 11:58:00;;;;;;;3.83;0.70;;;;;;;28.84;39.98;100456.16;4937150;29;20063;-75
2021/10/18 12:00:31;;;;;;;0.20;0.10;;;;;;;29.00;39.86;100472.19;4943422;28;20556;-71
2021/10/18 12:03:01;;;;;;;0.65;0.20;;;;;;;29.28;39.28;100465.72;4945092;29;20048;-72
2021/10/18 12:05:49;;;;;;;1.88;0.30;;;;;;;29.14;39.25;100456.94;4944395;28;20110;-72
2021/10/18 12:08:20;;;;;;;0.98;0.20;;;;;;;29.31;39.10;100461.22;4945147;29;20027;-72
2021/10/18 12:10:48;;;;;;;3.10;0.77;;;;;;;29.35;39.17;100461.91;4944244;28;20475;-72
2021/10/18 12:13:21;;;;;;;0.00;0.00;;;;;;;29.43;38.97;100470.94;4945320;28;20023;-72
2021/10/18 12:16:08;;;;;;;0.30;0.30;;;;;;;29.43;39.36;100468.09;4942680;29;20028;-72
2021/10/18 12:18:43;;;;;;;5.28;0.95;;;;;;;29.42;39.28;100469.34;4937776;29;20474;-71
2021/10/18 12:21:11;;;;;;;2.33;1.00;;;;;;;29.50;39.03;100467.91;4943148;29;20019;-71
2021/10/18 12:23:50;;;;;;;2.47;0.68;;;;;;;29.48;39.46;100453.50;4946712;29;20034;-71
2021/10/18 12:26:22;;;;;;;1.33;0.70;;;;;;;29.58;39.20;100462.84;4939041;29;20044;-71
2021/10/18 12:29:05;;;;;;;0.77;0.40;;;;;;;29.32;39.88;100451.53;4938209;29;20039;-73
2021/10/18 12:31:50;;;;;;;0.77;0.40;;;;;;;29.32;39.70;100476.06;4946526;28;20027;-71
2021/10/18 12:34:19;;;;;;;0.77;0.40;;;;;;;29.39;39.56;100465.38;4944157;29;20027;-72
2021/10/18 12:36:52;;;;;;;1.13;0.38;;;;;;;29.35;39.61;100461.91;4943250;28;20035;-72
2021/10/18 12:39:43;;;;;;;2.40;0.32;;;;;;;29.41;39.18;100460.13;4943507;29;20106;-72
2021/10/18 12:42:21;;;;;;;0.63;0.30;;;;;;;29.27;39.43;100455.72;4941047;29;20040;-72
2021/10/18 12:45:00;;;;;;;9.30;0.90;;;;;;;29.56;39.16;100455.66;4944231;28;20035;-72
2021/10/18 12:47:25;;;;;;;3.63;0.68;;;;;;;29.67;39.22;100463.75;4944502;29;20095;-72
2021/10/18 12:50:01;;;;;;;2.33;1.02;;;;;;;29.26;39.37;100461.78;4945726;29;20047;-71
2021/10/18 12:52:28;;;;;;;5.40;0.98;;;;;;;29.50;39.10;100460.25;4944925;29;20016;-71
2021/10/18 12:54:54;;;;;;;2.83;0.75;;;;;;;29.47;38.98;100463.16;4943457;28;20063;-75
2021/10/18 12:57:24;;;;;;;1.00;0.50;;;;;;;29.57;39.19;100467.69;4946131;29;20023;-73
2021/10/18 13:00:05;;;;;;;3.55;0.80;;;;;;;29.34;39.14;100456.75;4945289;29;20028;-71
2021/10/18 13:02:33;;;;;;;1.40;0.38;;;;;;;29.61;39.12;100468.34;4945301;29;20023;-73
2021/10/18 13:05:16;;;;;;;3.33;0.93;;;;;;;29.52;39.32;100476.69;4938913;28;20051;-71
2021/10/18 13:08:01;;;;;;;0.55;0.45;;;;;;;29.40;39.49;100474.66;4938230;29;20031;-71